Logan Cache Airport Logan US
ICAO: KLGU
IATA: LGU
Category: Medium
Scheduled Services: No

Elevation: 4457 ft
TransAlt. 18000 ft.

Airport Communications:
ASOS:135.275
CEDAR CITY RDO:122.2
CTAF/UNICOM:122.8

KLGU Zoom In..

If Map Doesn't Load, Click Here

Runways:

(A) RW 10 length 5005 ft width 75 ft
---- / hdg 108

(B) RW 17 length 9010 ft width 100 ft
ILS 109.15 / hdg 169

(C) RW 28 length 5005 ft width 75 ft
---- / hdg 288

(D) RW 35 length 9010 ft width 100 ft
---- / hdg 349

Location; KLGU
Day. 23 / Time. 08.51 Zulu
* Altimeter: 29.94
* Temperature: 09° c. 48.2°f.
* Wind from: 000° Speed 00 kn.
Dewpoint: 00° c.
Visibility: 10 Statute Miles.
Clouds: Clear (automated report).

KLGU 230851Z AUTO 00000KT 10SM CLR 09/00 A2994 RMK AO2 SLP093 T00890000 53001 $


Wind - Calm.

 
 
jpsmedia.com for Web Design worldairports.se 2018   terms of use